GR-0012 weather

Larisa
Larissa, Greece

Public forecast

Using degrees Celsius for public forecast. Weather courtesy of forecast.io.

METAR (pilot weather report)

Closest report is Larisa Airport, 5.8 nm (10.8 km) E. Retrieved 2018/06/21 23:50 UTC (47 minutes ago):

LGLR 212350Z 00000KT 9999 FEW030 20/14 Q1013 RMK FEW080 BKN180 BLU

TAF (pilot weather forecast)

Forecast is more than 12 hours old.

Closest forecast is Thessaloniki Macedonia International Airport, 59.4 nm (110.0 km) NNE. Retrieved 2018/06/21 00:12 UTC (1 day ago):

TAF LGTS 212300Z 2200/2224 VRB03KT 9999 FEW030 PROB30 TEMPO 2210/2216 6000 SHRA FEW020CB SCT025 BECMG 2220/2222 34015KT